Time;durP1;ratioP1;P1;durP2;ratioP2;P2;SDS_P1;SDS_P2;PMS_P1;PMS_P2;Temp;Humidity;BMP_temperature;BMP_pressure;BME280_temperature;BME280_humidity;BME280_pressure;Samples;Min_cycle;Max_cycle;Signal;HPM_P1;HPM_P2
2022/10/19 00:00:28;;;;;;;5.38;2.53;;;14.60;99.40;;;;;;5081016;28;20028;-70
2022/10/19 00:02:53;;;;;;;4.90;1.85;;;14.70;99.40;;;;;;5077648;28;20425;-70
2022/10/19 00:05:19;;;;;;;7.65;2.42;;;14.60;99.20;;;;;;5078220;28;20031;-70
2022/10/19 00:07:44;;;;;;;4.53;2.92;;;14.60;99.30;;;;;;5091675;28;20526;-70
2022/10/19 00:10:11;;;;;;;5.53;2.53;;;14.60;99.20;;;;;;5074129;28;20059;-70
2022/10/19 00:12:37;;;;;;;6.15;2.25;;;14.60;99.10;;;;;;5074068;28;20103;-69
2022/10/19 00:15:04;;;;;;;4.65;2.33;;;14.50;99.10;;;;;;5082793;28;20122;-69
2022/10/19 00:17:30;;;;;;;9.40;2.53;;;14.50;99.10;;;;;;5074046;28;20021;-70
2022/10/19 00:19:57;;;;;;;7.85;3.08;;;14.50;99.20;;;;;;5076247;28;20074;-69
2022/10/19 00:22:22;;;;;;;7.28;2.50;;;14.60;99.20;;;;;;5073733;28;20051;-68
2022/10/19 00:24:48;;;;;;;9.80;3.10;;;14.60;99.20;;;;;;5077550;28;20024;-70
2022/10/19 00:27:16;;;;;;;7.63;2.35;;;14.60;99.20;;;;;;5074512;28;20371;-69
2022/10/19 00:29:41;;;;;;;6.95;3.28;;;14.60;99.20;;;;;;5081682;28;20029;-69
2022/10/19 00:32:07;;;;;;;5.20;2.47;;;14.60;99.20;;;;;;5074017;28;20020;-69
2022/10/19 00:34:32;;;;;;;4.97;2.55;;;14.60;99.10;;;;;;5079890;28;20047;-69
2022/10/19 00:36:59;;;;;;;6.82;2.78;;;14.60;99.10;;;;;;5073917;28;20031;-68
2022/10/19 00:39:25;;;;;;;6.80;3.58;;;14.60;99.00;;;;;;5079151;28;20422;-69
2022/10/19 00:41:50;;;;;;;8.80;2.70;;;14.60;99.10;;;;;;5074188;28;20031;-68
2022/10/19 00:44:16;;;;;;;8.48;3.85;;;14.70;99.10;;;;;;5072233;28;20028;-68
2022/10/19 00:46:47;;;;;;;6.72;2.67;;;14.70;99.10;;;;;;5072177;28;20027;-69
2022/10/19 00:49:18;;;;;;;6.68;2.75;;;14.70;99.10;;;;;;5080435;28;20039;-70
2022/10/19 00:51:47;;;;;;;5.03;2.88;;;14.80;99.10;;;;;;5068041;28;20538;-70
2022/10/19 00:54:15;;;;;;;6.25;2.67;;;14.80;99.00;;;;;;5065332;28;20040;-69
2022/10/19 00:56:42;;;;;;;5.88;2.13;;;14.80;99.00;;;;;;5073666;28;20456;-70
2022/10/19 00:59:11;;;;;;;5.90;2.45;;;14.90;98.90;;;;;;5079505;28;20115;-70
2022/10/19 01:01:36;;;;;;;6.68;2.88;;;14.90;98.90;;;;;;5057598;28;20033;-68
2022/10/19 01:04:03;;;;;;;6.70;2.30;;;14.90;98.90;;;;;;5068771;28;20041;-69
2022/10/19 01:06:29;;;;;;;6.53;3.08;;;14.80;98.90;;;;;;5073468;28;20103;-70
2022/10/19 01:08:55;;;;;;;3.55;2.50;;;14.80;98.80;;;;;;5078063;28;20032;-69
2022/10/19 01:11:29;;;;;;;12.13;3.92;;;14.80;98.80;;;;;;5090322;28;20028;-70
2022/10/19 01:14:21;;;;;;;5.32;2.65;;;14.80;98.80;;;;;;5089042;28;20091;-68
2022/10/19 01:17:02;;;;;;;5.65;2.28;;;14.80;98.70;;;;;;5073230;28;20226;-69
2022/10/19 01:19:31;;;;;;;3.88;2.00;;;14.80;98.60;;;;;;5072583;28;20075;-69
2022/10/19 01:22:06;;;;;;;6.20;2.80;;;14.80;98.60;;;;;;5073419;28;20035;-68
2022/10/19 01:24:45;;;;;;;6.95;1.98;;;14.70;98.40;;;;;;5071943;28;20055;-68
2022/10/19 01:27:45;;;;;;;7.55;2.08;;;14.70;98.40;;;;;;5072342;28;20040;-69
2022/10/19 01:30:25;;;;;;;4.10;1.90;;;14.70;98.20;;;;;;5077528;28;20033;-69
2022/10/19 01:33:18;;;;;;;7.03;2.60;;;14.70;98.10;;;;;;5072476;28;20487;-69
2022/10/19 01:35:55;;;;;;;5.03;2.05;;;14.70;98.00;;;;;;5069681;28;20028;-69
2022/10/19 01:38:26;;;;;;;5.35;1.80;;;14.60;97.90;;;;;;5074709;28;20059;-69
2022/10/19 01:40:59;;;;;;;3.67;1.63;;;14.60;97.90;;;;;;5074178;28;20082;-69
2022/10/19 01:43:37;;;;;;;6.47;2.33;;;14.60;97.80;;;;;;5088415;28;20024;-69
2022/10/19 01:46:19;;;;;;;4.80;2.20;;;14.60;97.80;;;;;;5052909;28;20068;-69
2022/10/19 01:49:00;;;;;;;4.63;2.05;;;14.60;97.90;;;;;;5061361;28;20079;-69
2022/10/19 01:51:30;;;;;;;5.70;2.25;;;14.60;97.90;;;;;;5072938;28;20028;-68
2022/10/19 01:53:59;;;;;;;4.30;1.90;;;14.70;98.00;;;;;;5077926;28;20066;-68
2022/10/19 01:56:27;;;;;;;8.10;2.33;;;14.60;98.00;;;;;;5087626;28;20082;-69
2022/10/19 01:58:56;;;;;;;6.65;2.70;;;14.70;98.10;;;;;;5072347;28;20024;-69
2022/10/19 02:01:26;;;;;;;5.82;1.95;;;14.70;98.20;;;;;;5078668;28;20055;-69
2022/10/19 02:03:53;;;;;;;4.80;2.40;;;14.70;98.20;;;;;;5089118;28;20067;-68
2022/10/19 02:06:19;;;;;;;7.05;2.33;;;14.70;98.30;;;;;;5082382;28;20373;-68
2022/10/19 02:08:48;;;;;;;5.90;2.15;;;14.70;98.30;;;;;;5075318;28;20373;-69
2022/10/19 02:11:14;;;;;;;5.82;2.10;;;14.80;98.30;;;;;;5082456;28;20048;-69
2022/10/19 02:13:43;;;;;;;6.47;2.42;;;14.70;98.30;;;;;;5074566;28;20063;-68
2022/10/19 02:16:24;;;;;;;7.95;2.50;;;14.80;98.40;;;;;;5071513;28;20417;-69
2022/10/19 02:18:52;;;;;;;4.97;2.05;;;14.80;98.40;;;;;;5075821;28;20020;-69
2022/10/19 02:21:18;;;;;;;6.15;2.53;;;14.80;98.40;;;;;;5080561;28;20082;-69
2022/10/19 02:23:44;;;;;;;4.03;2.42;;;14.80;98.40;;;;;;5076146;28;20052;-69
2022/10/19 02:26:10;;;;;;;4.18;2.60;;;14.80;98.40;;;;;;5084229;28;20425;-68
2022/10/19 02:28:36;;;;;;;8.48;2.53;;;14.80;98.40;;;;;;5071925;28;20123;-69
2022/10/19 02:31:02;;;;;;;4.28;2.10;;;14.80;98.40;;;;;;5090790;28;20016;-69
2022/10/19 02:33:28;;;;;;;5.10;1.75;;;14.80;98.40;;;;;;5071113;28;20079;-69
2022/10/19 02:35:56;;;;;;;7.88;2.10;;;14.80;98.40;;;;;;5089980;28;20499;-68
2022/10/19 02:38:22;;;;;;;8.20;1.92;;;14.80;98.40;;;;;;5071146;28;20032;-69
2022/10/19 02:41:13;;;;;;;4.40;1.63;;;14.80;98.30;;;;;;5092043;28;20031;-69
2022/10/19 02:43:41;;;;;;;5.05;2.00;;;14.70;98.20;;;;;;5039880;28;20044;-70
2022/10/19 02:46:16;;;;;;;5.03;1.98;;;14.70;98.10;;;;;;5075833;28;20495;-70
2022/10/19 02:48:43;;;;;;;6.60;2.17;;;14.70;98.20;;;;;;5073994;28;20043;-70
2022/10/19 02:51:30;;;;;;;6.15;2.25;;;14.70;98.20;;;;;;5089507;28;20525;-70
2022/10/19 02:53:55;;;;;;;9.48;2.65;;;14.70;98.30;;;;;;5075919;28;20036;-69
2022/10/19 02:56:21;;;;;;;6.78;2.58;;;14.70;98.30;;;;;;5080911;28;20028;-68
2022/10/19 02:58:47;;;;;;;4.07;2.03;;;14.70;98.30;;;;;;5072717;28;20024;-69
2022/10/19 03:01:13;;;;;;;4.45;2.28;;;14.70;98.30;;;;;;5081840;28;20487;-69
2022/10/19 03:03:39;;;;;;;4.13;1.92;;;14.70;98.30;;;;;;5072460;28;20017;-70
2022/10/19 03:06:04;;;;;;;6.85;1.92;;;14.60;98.30;;;;;;5083516;28;20124;-69
2022/10/19 03:08:31;;;;;;;7.68;2.10;;;14.60;98.20;;;;;;5069065;28;20103;-70
2022/10/19 03:10:59;;;;;;;4.63;2.35;;;14.60;98.20;;;;;;5060360;28;20040;-70
2022/10/19 03:13:25;;;;;;;6.25;1.80;;;14.60;98.20;;;;;;5075217;28;20024;-69
2022/10/19 03:15:51;;;;;;;5.75;1.70;;;14.60;98.20;;;;;;5074784;28;20027;-70
2022/10/19 03:18:17;;;;;;;6.20;1.83;;;14.60;98.10;;;;;;5063544;28;20085;-70
2022/10/19 03:20:43;;;;;;;7.00;1.83;;;14.50;98.20;;;;;;5073066;28;20135;-70
2022/10/19 03:23:09;;;;;;;3.47;2.00;;;14.60;98.20;;;;;;5075727;28;20020;-69
2022/10/19 03:25:34;;;;;;;4.00;1.63;;;14.50;98.20;;;;;;5077504;28;20039;-68
2022/10/19 03:28:00;;;;;;;4.97;1.90;;;14.50;98.20;;;;;;5081410;28;20085;-69
2022/10/19 03:30:26;;;;;;;3.97;1.70;;;14.50;98.20;;;;;;5081695;28;20021;-68
2022/10/19 03:32:52;;;;;;;4.10;1.70;;;14.50;98.20;;;;;;5074098;28;20044;-69
2022/10/19 03:35:17;;;;;;;5.05;1.70;;;14.50;98.20;;;;;;5075281;28;20020;-69
2022/10/19 03:37:43;;;;;;;4.18;1.77;;;14.40;98.20;;;;;;5074953;28;20024;-69
2022/10/19 03:40:09;;;;;;;4.05;1.80;;;14.40;98.30;;;;;;5074248;28;20086;-69
2022/10/19 03:42:35;;;;;;;2.70;1.83;;;14.30;98.20;;;;;;5074819;28;20028;-69
2022/10/19 03:45:00;;;;;;;5.55;2.10;;;14.30;98.30;;;;;;5073421;28;20502;-69
2022/10/19 03:47:26;;;;;;;4.97;2.30;;;14.20;98.30;;;;;;5074906;28;20020;-68
2022/10/19 03:49:52;;;;;;;5.18;1.60;;;14.20;98.40;;;;;;5073455;28;20031;-69
2022/10/19 03:52:19;;;;;;;4.00;1.50;;;14.20;98.50;;;;;;5063954;28;20025;-69
2022/10/19 03:54:50;;;;;;;6.07;1.75;;;14.10;98.40;;;;;;5068041;28;20498;-68
2022/10/19 03:57:16;;;;;;;4.72;1.60;;;14.20;98.50;;;;;;5074699;28;20033;-69
2022/10/19 03:59:41;;;;;;;3.08;1.55;;;14.20;98.50;;;;;;5079936;28;20039;-69
2022/10/19 04:02:07;;;;;;;4.22;1.73;;;14.10;98.50;;;;;;5086283;28;20029;-68
2022/10/19 04:04:33;;;;;;;5.95;1.88;;;14.10;98.50;;;;;;5073676;28;20040;-69
2022/10/19 04:06:59;;;;;;;5.22;1.80;;;14.10;98.50;;;;;;5072398;28;20494;-69
2022/10/19 04:09:24;;;;;;;3.05;1.50;;;14.00;98.50;;;;;;5074522;28;20021;-68
2022/10/19 04:11:50;;;;;;;3.97;1.55;;;14.00;98.50;;;;;;5072292;28;20028;-69
2022/10/19 04:14:19;;;;;;;5.97;2.00;;;14.00;98.60;;;;;;5074192;28;20021;-69
2022/10/19 04:16:44;;;;;;;6.45;1.60;;;14.00;98.70;;;;;;5074260;28;20035;-69
2022/10/19 04:19:14;;;;;;;5.80;1.92;;;14.00;98.70;;;;;;5072380;28;20028;-69
2022/10/19 04:21:42;;;;;;;3.90;1.30;;;14.10;98.70;;;;;;5062340;28;20552;-70
2022/10/19 04:24:14;;;;;;;5.25;1.98;;;14.10;98.60;;;;;;5087088;28;20041;-69
2022/10/19 04:26:45;;;;;;;4.82;2.08;;;14.20;98.60;;;;;;5073503;28;20153;-69
2022/10/19 04:29:12;;;;;;;3.72;1.33;;;14.10;98.40;;;;;;5073223;28;20154;-70
2022/10/19 04:31:38;;;;;;;2.95;1.58;;;14.10;98.40;;;;;;5057225;28;20094;-69
2022/10/19 04:34:05;;;;;;;3.33;1.40;;;14.20;98.30;;;;;;5072763;28;20071;-70
2022/10/19 04:36:31;;;;;;;3.42;1.38;;;14.20;98.20;;;;;;5074581;28;20054;-70
2022/10/19 04:38:56;;;;;;;2.28;1.40;;;14.10;98.10;;;;;;5084770;28;20032;-70
2022/10/19 04:41:23;;;;;;;7.30;2.28;;;14.00;98.10;;;;;;5091569;28;20031;-71
2022/10/19 04:43:53;;;;;;;3.95;1.30;;;14.00;98.20;;;;;;5085128;28;20017;-68
2022/10/19 04:46:19;;;;;;;2.80;1.35;;;14.10;98.30;;;;;;5090976;28;20032;-69
2022/10/19 04:48:46;;;;;;;3.50;1.25;;;14.10;98.20;;;;;;5086532;28;20017;-69
2022/10/19 04:51:13;;;;;;;2.92;1.20;;;14.10;98.20;;;;;;5084031;28;20036;-69
2022/10/19 04:53:40;;;;;;;2.28;1.23;;;14.10;98.10;;;;;;5076287;28;20024;-69
2022/10/19 04:56:08;;;;;;;2.30;1.13;;;14.10;98.20;;;;;;5077889;28;20036;-69
2022/10/19 04:58:35;;;;;;;4.25;1.20;;;14.10;98.10;;;;;;5084898;28;20109;-69
2022/10/19 05:01:09;;;;;;;4.10;1.52;;;14.10;98.10;;;;;;5087516;28;20487;-69
2022/10/19 05:03:34;;;;;;;5.60;1.63;;;14.10;98.10;;;;;;5073517;28;20021;-69
2022/10/19 05:06:01;;;;;;;4.10;1.33;;;14.20;98.10;;;;;;5089848;28;20032;-68
2022/10/19 05:08:27;;;;;;;3.15;1.30;;;14.10;97.90;;;;;;5080194;28;20020;-69
2022/10/19 05:10:52;;;;;;;3.92;1.50;;;14.10;97.90;;;;;;5091385;28;20061;-68
2022/10/19 05:13:18;;;;;;;5.00;1.65;;;14.00;97.90;;;;;;5081689;28;20028;-69
2022/10/19 05:15:53;;;;;;;4.40;1.75;;;14.00;98.10;;;;;;5075801;28;20073;-69
2022/10/19 05:18:18;;;;;;;6.18;1.65;;;14.00;98.10;;;;;;5072138;28;20029;-70
2022/10/19 05:20:44;;;;;;;3.83;1.30;;;14.00;98.00;;;;;;5082910;28;20512;-70
2022/10/19 05:23:10;;;;;;;5.82;1.63;;;13.90;97.90;;;;;;5082672;28;20013;-70
2022/10/19 05:25:37;;;;;;;3.58;1.75;;;13.90;97.90;;;;;;5081950;28;20494;-71
2022/10/19 05:28:02;;;;;;;3.33;1.20;;;13.80;98.00;;;;;;5083755;28;20154;-70
2022/10/19 05:30:28;;;;;;;4.13;1.70;;;13.70;98.10;;;;;;5078104;28;20054;-70
2022/10/19 05:32:54;;;;;;;3.22;1.40;;;13.70;98.30;;;;;;5073669;28;20040;-70
2022/10/19 05:35:20;;;;;;;6.40;2.08;;;13.70;98.40;;;;;;5072417;28;20024;-70
2022/10/19 05:37:46;;;;;;;3.40;1.10;;;13.60;98.60;;;;;;5067294;28;20029;-70
2022/10/19 05:40:11;;;;;;;4.68;1.60;;;13.60;98.80;;;;;;5063275;28;20039;-71
2022/10/19 05:42:37;;;;;;;3.78;1.50;;;13.50;98.90;;;;;;5069648;28;20071;-70
2022/10/19 05:45:04;;;;;;;4.82;2.05;;;13.50;99.00;;;;;;5064967;28;20115;-71
2022/10/19 05:47:30;;;;;;;2.22;1.48;;;13.50;99.10;;;;;;5074736;28;20021;-73
2022/10/19 05:50:05;;;;;;;4.47;1.75;;;13.50;99.20;;;;;;5069718;28;20555;-69
2022/10/19 05:52:31;;;;;;;5.95;1.35;;;13.50;99.50;;;;;;5065444;28;20056;-70
2022/10/19 05:54:59;;;;;;;6.72;1.63;;;13.50;99.30;;;;;;5071451;28;20025;-70
2022/10/19 05:57:25;;;;;;;4.38;1.48;;;13.40;99.40;;;;;;5078140;28;20025;-70
2022/10/19 05:59:51;;;;;;;5.55;1.60;;;13.50;99.40;;;;;;5085216;28;20184;-70
2022/10/19 06:02:16;;;;;;;3.97;1.60;;;13.40;99.40;;;;;;5081869;28;20035;-69
2022/10/19 06:04:42;;;;;;;4.47;1.80;;;13.40;99.40;;;;;;5081132;28;20085;-70
2022/10/19 06:07:08;;;;;;;2.80;1.40;;;13.50;99.50;;;;;;5064882;28;20082;-69
2022/10/19 06:09:35;;;;;;;7.53;2.15;;;13.50;99.40;;;;;;5084714;28;20036;-70
2022/10/19 06:12:01;;;;;;;6.25;1.90;;;13.50;99.50;;;;;;5084431;28;20024;-69
2022/10/19 06:14:27;;;;;;;5.53;1.55;;;13.50;99.50;;;;;;5085173;28;20024;-71
2022/10/19 06:16:53;;;;;;;5.05;1.50;;;13.50;99.60;;;;;;5072620;28;20058;-71
2022/10/19 06:19:18;;;;;;;4.25;1.67;;;13.50;99.50;;;;;;5073707;28;20028;-70
2022/10/19 06:21:44;;;;;;;3.72;1.80;;;13.60;99.50;;;;;;5084698;28;20051;-70
2022/10/19 06:24:11;;;;;;;4.75;1.42;;;13.60;99.50;;;;;;5090298;28;20106;-70
2022/10/19 06:26:37;;;;;;;3.08;1.20;;;13.60;99.40;;;;;;5080424;28;20058;-70
2022/10/19 06:29:03;;;;;;;3.88;1.52;;;13.60;99.40;;;;;;5087659;28;20040;-69
2022/10/19 06:31:31;;;;;;;5.22;1.35;;;13.70;99.40;;;;;;5076380;28;20028;-70
2022/10/19 06:33:57;;;;;;;5.20;1.95;;;13.70;99.40;;;;;;5069214;28;20055;-70
2022/10/19 06:36:27;;;;;;;3.47;1.13;;;13.70;99.40;;;;;;5076832;28;20036;-70
2022/10/19 06:38:53;;;;;;;3.25;1.50;;;13.70;99.50;;;;;;5080343;28;20105;-70
2022/10/19 06:41:19;;;;;;;3.20;1.50;;;13.70;99.50;;;;;;5070746;28;20070;-70
2022/10/19 06:43:52;;;;;;;4.15;1.40;;;13.80;99.40;;;;;;5063563;28;20025;-70
2022/10/19 06:46:20;;;;;;;3.35;1.40;;;13.80;99.40;;;;;;5062611;28;20033;-70
2022/10/19 06:48:57;;;;;;;3.70;1.40;;;13.80;99.50;;;;;;5066942;28;20193;-69
2022/10/19 06:51:24;;;;;;;4.53;1.60;;;13.80;99.40;;;;;;5070384;28;20056;-69
2022/10/19 06:53:51;;;;;;;4.50;1.60;;;13.80;99.40;;;;;;5066664;28;20020;-69
2022/10/19 06:56:17;;;;;;;4.05;2.20;;;13.70;99.40;;;;;;5068300;28;20053;-69
2022/10/19 06:58:43;;;;;;;4.43;1.50;;;13.80;99.50;;;;;;5087354;28;20024;-69
2022/10/19 07:01:10;;;;;;;7.40;1.80;;;13.80;99.50;;;;;;5066035;28;20028;-69
2022/10/19 07:03:36;;;;;;;3.53;1.60;;;13.90;99.50;;;;;;5071578;28;20055;-70
2022/10/19 07:06:05;;;;;;;3.45;1.42;;;14.00;99.50;;;;;;5070237;28;20025;-69
2022/10/19 07:08:32;;;;;;;3.72;1.48;;;14.00;99.50;;;;;;5069697;28;20032;-69
2022/10/19 07:11:01;;;;;;;6.22;1.75;;;14.10;99.40;;;;;;5069256;28;20426;-68
2022/10/19 07:13:28;;;;;;;4.28;1.63;;;14.10;99.30;;;;;;5070480;28;20085;-68
2022/10/19 07:16:05;;;;;;;5.20;1.38;;;14.10;99.20;;;;;;5070321;28;20035;-69
2022/10/19 07:18:35;;;;;;;3.67;1.33;;;14.20;99.20;;;;;;5051511;28;20056;-68
2022/10/19 07:21:02;;;;;;;2.70;1.67;;;14.20;99.20;;;;;;5066905;28;20123;-68
2022/10/19 07:23:30;;;;;;;4.97;1.55;;;14.20;99.20;;;;;;5071458;28;20403;-69
2022/10/19 07:26:00;;;;;;;3.88;1.30;;;14.30;99.10;;;;;;5077380;28;20032;-68
2022/10/19 07:28:28;;;;;;;3.60;1.77;;;14.30;99.10;;;;;;5091800;28;20051;-68
2022/10/19 07:30:54;;;;;;;3.15;1.70;;;14.30;99.00;;;;;;5063343;28;20098;-69
2022/10/19 07:33:19;;;;;;;4.57;1.52;;;14.40;99.00;;;;;;5069401;28;20520;-70
2022/10/19 07:35:45;;;;;;;5.18;1.58;;;14.40;99.10;;;;;;5070597;28;20487;-68
2022/10/19 07:38:10;;;;;;;4.93;1.80;;;14.50;99.00;;;;;;5076523;28;20368;-67
2022/10/19 07:40:36;;;;;;;3.67;1.67;;;14.50;99.00;;;;;;5089327;28;20035;-69
2022/10/19 07:43:02;;;;;;;3.65;1.60;;;14.60;98.90;;;;;;5070235;28;20025;-69
2022/10/19 07:45:28;;;;;;;5.28;1.60;;;14.70;98.80;;;;;;5060624;28;20216;-69
2022/10/19 07:47:54;;;;;;;4.03;2.03;;;14.60;98.70;;;;;;5087783;28;20043;-68
2022/10/19 07:50:22;;;;;;;5.00;1.63;;;14.60;98.70;;;;;;5071806;28;20028;-70
2022/10/19 07:52:47;;;;;;;3.17;1.30;;;14.70;98.70;;;;;;5071054;28;20024;-69
2022/10/19 07:55:13;;;;;;;4.85;1.70;;;14.70;98.70;;;;;;5070223;28;20038;-69
2022/10/19 07:57:39;;;;;;;4.72;1.73;;;14.70;98.30;;;;;;5054862;28;20349;-68
2022/10/19 08:00:05;;;;;;;4.72;2.00;;;14.60;98.40;;;;;;5069818;28;20036;-68
2022/10/19 08:02:30;;;;;;;6.25;2.33;;;14.60;98.40;;;;;;5068964;28;20033;-69
2022/10/19 08:04:56;;;;;;;5.50;1.50;;;14.50;98.50;;;;;;5075550;28;20028;-69
2022/10/19 08:07:21;;;;;;;4.53;2.20;;;14.60;98.50;;;;;;5075295;28;20541;-68
2022/10/19 08:09:47;;;;;;;5.55;1.80;;;14.60;98.50;;;;;;5072337;28;20040;-68
2022/10/19 08:12:12;;;;;;;3.58;1.70;;;14.70;98.40;;;;;;5079784;28;20539;-68
2022/10/19 08:14:38;;;;;;;5.22;1.65;;;14.60;98.40;;;;;;5074294;28;20024;-68
2022/10/19 08:17:04;;;;;;;5.22;1.98;;;14.60;98.40;;;;;;5073243;28;20383;-69
2022/10/19 08:19:29;;;;;;;3.55;1.60;;;14.60;98.40;;;;;;5074075;28;20069;-69
2022/10/19 08:21:55;;;;;;;5.00;1.95;;;14.50;98.60;;;;;;5079102;28;20464;-69
2022/10/19 08:24:20;;;;;;;4.25;1.55;;;14.60;98.70;;;;;;5064295;28;20033;-68
2022/10/19 08:26:49;;;;;;;5.88;2.10;;;14.60;98.80;;;;;;5067316;28;20029;-68
2022/10/19 08:29:18;;;;;;;6.20;1.88;;;14.70;98.80;;;;;;5074240;28;20028;-69
2022/10/19 08:31:46;;;;;;;4.47;2.00;;;14.70;98.90;;;;;;5083053;28;20032;-69
2022/10/19 08:34:13;;;;;;;6.47;2.40;;;14.70;99.10;;;;;;5076732;28;20554;-69
2022/10/19 08:36:39;;;;;;;5.10;1.60;;;14.70;99.10;;;;;;5082473;28;20051;-69
2022/10/19 08:39:07;;;;;;;2.88;1.70;;;14.70;99.20;;;;;;5091325;28;20060;-69
2022/10/19 08:41:39;;;;;;;5.75;1.60;;;14.80;99.30;;;;;;5076427;28;20028;-69
2022/10/19 08:44:20;;;;;;;3.33;1.80;;;14.90;99.40;;;;;;5074195;28;20028;-69
2022/10/19 08:47:02;;;;;;;8.48;1.90;;;14.90;99.30;;;;;;5077050;28;20031;-69
2022/10/19 08:49:29;;;;;;;7.05;2.60;;;15.00;99.20;;;;;;5073059;28;20024;-69
2022/10/19 08:52:00;;;;;;;5.70;2.00;;;15.10;99.10;;;;;;5077016;28;20077;-70
2022/10/19 08:54:56;;;;;;;5.80;1.90;;;15.20;99.20;;;;;;5081134;28;20054;-70
2022/10/19 08:57:52;;;;;;;6.90;2.00;;;15.20;98.90;;;;;;5068906;28;20033;-69
2022/10/19 09:01:01;;;;;;;5.57;2.10;;;15.20;98.50;;;;;;5048379;28;20059;-69
2022/10/19 09:03:45;;;;;;;7.82;1.88;;;15.10;98.60;;;;;;4991104;28;20027;-69
2022/10/19 09:06:35;;;;;;;4.63;2.20;;;15.10;98.40;;;;;;4986297;28;20034;-69
2022/10/19 09:09:01;;;;;;;4.18;2.28;;;15.20;98.50;;;;;;5049094;28;20047;-69
2022/10/19 09:11:35;;;;;;;6.20;1.40;;;15.20;98.30;;;;;;5073947;28;20487;-69
2022/10/19 09:14:12;;;;;;;3.65;1.60;;;15.10;98.20;;;;;;5080469;28;20055;-72
2022/10/19 09:16:37;;;;;;;6.82;2.05;;;15.10;98.20;;;;;;5091114;28;20028;-70
2022/10/19 09:19:28;;;;;;;7.30;1.92;;;15.20;98.20;;;;;;5081424;28;20024;-71
2022/10/19 09:22:04;;;;;;;4.15;1.73;;;15.20;97.90;;;;;;5069245;28;20115;-70
2022/10/19 09:24:47;;;;;;;2.78;1.38;;;15.20;97.60;;;;;;5068847;28;20028;-69
2022/10/19 09:27:32;;;;;;;4.00;1.70;;;15.20;97.80;;;;;;5071044;28;20036;-70
2022/10/19 09:30:02;;;;;;;4.32;1.70;;;15.20;97.40;;;;;;5070789;28;20032;-70
2022/10/19 09:32:36;;;;;;;5.53;1.33;;;15.30;97.60;;;;;;5082263;28;20045;-70
2022/10/19 09:35:16;;;;;;;4.88;1.85;;;15.30;97.70;;;;;;5064292;28;20024;-70
2022/10/19 09:37:47;;;;;;;6.38;1.67;;;15.40;97.80;;;;;;5084364;28;20193;-70
2022/10/19 09:40:23;;;;;;;6.75;2.00;;;15.50;97.70;;;;;;5073036;28;20047;-70
2022/10/19 09:42:55;;;;;;;4.40;1.70;;;15.50;97.30;;;;;;5082499;28;20032;-69
2022/10/19 09:45:43;;;;;;;3.75;1.60;;;15.50;97.20;;;;;;5071958;28;20032;-70
2022/10/19 09:48:22;;;;;;;5.97;1.92;;;15.60;97.20;;;;;;5053933;28;20028;-69
2022/10/19 09:50:55;;;;;;;3.15;1.30;;;15.50;96.80;;;;;;5059122;28;20033;-69
2022/10/19 09:53:23;;;;;;;4.70;1.90;;;15.50;96.40;;;;;;5070071;28;20077;-72
2022/10/19 09:56:05;;;;;;;4.80;1.70;;;15.50;96.20;;;;;;5072343;28;20024;-71
2022/10/19 09:58:31;;;;;;;4.80;1.40;;;15.50;96.40;;;;;;5073744;28;20032;-72
2022/10/19 10:00:57;;;;;;;3.88;1.17;;;15.50;96.00;;;;;;5073187;28;20043;-71
2022/10/19 10:03:27;;;;;;;2.90;1.30;;;15.50;95.90;;;;;;5072242;28;20032;-71
2022/10/19 10:06:15;;;;;;;1.77;1.10;;;15.50;95.00;;;;;;5059792;28;20041;-71
2022/10/19 10:08:51;;;;;;;3.95;1.45;;;15.50;94.90;;;;;;5051852;28;20032;-71
2022/10/19 10:11:23;;;;;;;4.57;1.75;;;15.50;94.40;;;;;;5073715;28;20028;-70
2022/10/19 10:13:52;;;;;;;2.85;0.90;;;15.60;94.70;;;;;;5074526;28;20404;-71
2022/10/19 10:16:21;;;;;;;3.25;1.42;;;15.50;94.20;;;;;;5073436;28;20017;-71
2022/10/19 10:18:57;;;;;;;2.72;1.20;;;15.40;93.90;;;;;;5092251;28;20466;-70
2022/10/19 10:21:31;;;;;;;4.85;1.38;;;15.30;94.00;;;;;;5087411;28;20097;-71
2022/10/19 10:24:09;;;;;;;3.28;1.42;;;15.20;93.70;;;;;;5052088;28;20106;-70
2022/10/19 10:26:43;;;;;;;6.32;1.52;;;15.10;94.00;;;;;;5061411;28;20118;-70
2022/10/19 10:29:30;;;;;;;4.65;1.25;;;15.00;93.70;;;;;;5092523;28;20028;-71
2022/10/19 10:32:05;;;;;;;3.28;1.00;;;15.00;94.00;;;;;;5065649;28;20066;-71
2022/10/19 10:34:47;;;;;;;1.98;0.90;;;15.00;93.50;;;;;;5091917;28;20047;-70
2022/10/19 10:37:19;;;;;;;4.07;1.13;;;15.00;93.40;;;;;;5089896;28;20032;-71
2022/10/19 10:39:44;;;;;;;4.78;1.58;;;15.00;93.30;;;;;;5092061;28;20476;-71
2022/10/19 10:42:17;;;;;;;2.67;1.50;;;15.00;93.40;;;;;;5089452;28;20031;-71
2022/10/19 10:44:51;;;;;;;1.90;1.00;;;15.00;93.10;;;;;;5075536;28;20089;-71
2022/10/19 10:47:20;;;;;;;5.28;1.48;;;15.00;92.50;;;;;;5071184;28;20025;-70
2022/10/19 10:50:15;;;;;;;1.35;0.77;;;15.00;92.30;;;;;;5071876;28;20040;-71
2022/10/19 10:53:05;;;;;;;1.60;0.90;;;15.00;91.80;;;;;;5081724;28;20068;-71
2022/10/19 10:55:32;;;;;;;1.05;0.80;;;15.10;91.80;;;;;;5051913;28;20029;-71
2022/10/19 10:58:16;;;;;;;3.03;0.90;;;15.10;91.70;;;;;;5066116;28;20025;-71
2022/10/19 11:00:42;;;;;;;3.20;1.20;;;15.10;91.60;;;;;;5066800;28;20086;-71
2022/10/19 11:03:24;;;;;;;1.33;0.85;;;15.10;91.50;;;;;;5070541;28;20056;-70
2022/10/19 11:05:59;;;;;;;2.83;1.10;;;15.20;91.30;;;;;;5066898;28;20021;-71
2022/10/19 11:08:30;;;;;;;1.23;0.82;;;15.10;91.00;;;;;;5064775;28;20039;-71
2022/10/19 11:11:12;;;;;;;6.00;1.15;;;15.10;91.40;;;;;;5069667;28;20063;-71
2022/10/19 11:13:48;;;;;;;3.97;1.02;;;15.20;91.40;;;;;;5051722;28;20147;-71
2022/10/19 11:16:34;;;;;;;2.25;1.00;;;15.20;91.40;;;;;;5064597;28;20020;-71
2022/10/19 11:19:10;;;;;;;4.35;0.80;;;15.20;91.10;;;;;;5068614;28;20036;-71
2022/10/19 11:21:45;;;;;;;1.25;1.10;;;15.30;91.20;;;;;;5086218;28;20471;-71
2022/10/19 11:24:25;;;;;;;5.07;1.30;;;15.40;91.20;;;;;;5071674;28;20021;-71
2022/10/19 11:27:13;;;;;;;2.92;1.10;;;15.40;91.30;;;;;;5087453;28;20028;-72
2022/10/19 11:29:58;;;;;;;1.88;0.75;;;15.60;91.20;;;;;;5070470;28;20037;-72
2022/10/19 11:32:33;;;;;;;1.33;0.68;;;15.60;90.40;;;;;;5073876;28;20029;-71
2022/10/19 11:35:31;;;;;;;1.85;0.70;;;15.70;90.60;;;;;;5072482;28;20036;-71
2022/10/19 11:38:16;;;;;;;1.75;1.00;;;15.70;90.10;;;;;;5081930;28;20077;-70
2022/10/19 11:40:57;;;;;;;2.10;0.80;;;15.80;90.20;;;;;;5072067;28;20051;-70
2022/10/19 11:43:36;;;;;;;1.88;0.90;;;15.80;90.10;;;;;;5071170;28;20032;-71
2022/10/19 11:46:27;;;;;;;1.77;0.70;;;15.80;90.10;;;;;;5074480;28;20036;-72
2022/10/19 11:49:10;;;;;;;1.45;0.85;;;15.90;90.20;;;;;;5081520;28;20031;-72
2022/10/19 11:52:00;;;;;;;3.60;1.17;;;15.90;90.10;;;;;;5074592;28;20036;-72
2022/10/19 11:54:38;;;;;;;1.35;0.77;;;15.90;89.80;;;;;;5083848;28;20021;-72
2022/10/19 11:57:24;;;;;;;2.10;0.90;;;16.00;88.40;;;;;;5072666;28;20036;-72
2022/10/19 12:00:08;;;;;;;3.22;0.95;;;16.00;89.10;;;;;;5053285;28;20037;-70
2022/10/19 12:03:11;;;;;;;2.78;1.17;;;16.00;88.80;;;;;;5066061;28;20040;-72
2022/10/19 12:05:51;;;;;;;1.63;1.05;;;16.00;88.40;;;;;;5076736;28;20032;-71
2022/10/19 12:08:30;;;;;;;3.10;1.00;;;16.00;88.90;;;;;;5065481;28;20035;-72
2022/10/19 12:11:22;;;;;;;1.48;1.00;;;15.90;89.50;;;;;;5066242;28;20044;-72
2022/10/19 12:13:55;;;;;;;4.50;1.15;;;16.00;90.00;;;;;;5073953;28;20062;-73
2022/10/19 12:16:29;;;;;;;4.60;1.23;;;16.00;90.00;;;;;;5073320;28;20028;-73
2022/10/19 12:18:59;;;;;;;1.27;0.70;;;16.10;90.20;;;;;;5073860;28;20029;-72
2022/10/19 12:21:32;;;;;;;3.13;1.00;;;16.10;90.30;;;;;;5071807;28;20055;-71
2022/10/19 12:24:02;;;;;;;2.28;1.45;;;16.20;90.00;;;;;;5062340;28;20033;-72
2022/10/19 12:26:33;;;;;;;2.78;1.05;;;16.20;89.80;;;;;;5065568;28;20108;-72
2022/10/19 12:29:02;;;;;;;5.30;1.33;;;16.30;89.80;;;;;;5072957;28;20139;-72
2022/10/19 12:31:29;;;;;;;2.15;1.27;;;16.20;90.00;;;;;;5072171;28;20425;-72
2022/10/19 12:34:25;;;;;;;3.30;1.50;;;16.30;90.20;;;;;;5070731;28;20076;-72
2022/10/19 12:37:17;;;;;;;2.78;1.40;;;16.30;90.10;;;;;;5079229;28;20032;-72
2022/10/19 12:39:54;;;;;;;5.20;1.52;;;16.30;90.10;;;;;;5060967;28;20037;-72
2022/10/19 12:42:50;;;;;;;3.20;1.45;;;16.20;89.50;;;;;;5075665;28;20036;-72
2022/10/19 12:45:54;;;;;;;4.63;1.73;;;16.20;89.60;;;;;;5075467;28;20059;-72
2022/10/19 12:48:21;;;;;;;2.10;1.20;;;16.20;90.10;;;;;;5071699;28;20123;-72
2022/10/19 12:50:47;;;;;;;3.30;1.02;;;16.20;89.50;;;;;;5072639;28;20078;-72
2022/10/19 12:53:43;;;;;;;2.47;1.20;;;16.20;88.80;;;;;;5073365;28;20105;-73
2022/10/19 12:56:16;;;;;;;2.85;1.77;;;16.20;88.40;;;;;;5079555;28;20039;-72
2022/10/19 12:58:53;;;;;;;4.20;1.40;;;16.20;88.60;;;;;;5071406;28;20052;-72
2022/10/19 13:01:33;;;;;;;3.88;1.20;;;16.20;88.30;;;;;;5073821;28;20368;-73
2022/10/19 13:04:09;;;;;;;2.50;1.10;;;16.20;88.40;;;;;;5071662;28;20087;-73
2022/10/19 13:06:44;;;;;;;2.88;0.95;;;16.20;88.70;;;;;;5074002;28;20486;-73
2022/10/19 13:09:33;;;;;;;2.40;1.00;;;16.30;88.50;;;;;;5073496;28;20029;-73